Time;durP1;ratioP1;P1;durP2;ratioP2;P2;SDS_P1;SDS_P2;PMS_P1;PMS_P2;Temp;Humidity;BMP_temperature;BMP_pressure;BME280_temperature;BME280_humidity;BME280_pressure;Samples;Min_cycle;Max_cycle;Signal;HPM_P1;HPM_P2
2021/05/09 00:01:12;;;;;;;5.03;3.85;;;17.30;65.80;;;;;;5014596;28;20361;-60
2021/05/09 00:03:38;;;;;;;6.72;4.20;;;17.20;65.90;;;;;;5047087;28;20028;-59
2021/05/09 00:06:04;;;;;;;7.63;4.45;;;17.20;66.00;;;;;;5028823;28;20040;-61
2021/05/09 00:08:29;;;;;;;5.63;4.10;;;17.20;66.10;;;;;;5021570;28;20040;-60
2021/05/09 00:10:55;;;;;;;5.63;4.13;;;17.10;66.10;;;;;;5028891;28;20033;-60
2021/05/09 00:13:20;;;;;;;5.65;4.07;;;17.10;66.30;;;;;;5013521;28;20033;-60
2021/05/09 00:15:48;;;;;;;5.97;4.10;;;17.10;66.30;;;;;;5030609;28;20099;-61
2021/05/09 00:18:14;;;;;;;5.90;4.07;;;17.00;66.40;;;;;;5044587;28;20253;-60
2021/05/09 00:20:40;;;;;;;4.80;4.13;;;17.00;66.50;;;;;;5040079;28;20269;-60
2021/05/09 00:23:05;;;;;;;4.40;3.75;;;17.00;66.50;;;;;;5050993;28;20037;-60
2021/05/09 00:25:31;;;;;;;4.97;3.90;;;16.90;66.50;;;;;;5044972;28;20029;-60
2021/05/09 00:27:56;;;;;;;4.55;3.95;;;16.90;66.60;;;;;;5018524;28;20033;-62
2021/05/09 00:30:22;;;;;;;8.63;4.10;;;16.90;66.70;;;;;;5028560;28;20025;-60
2021/05/09 00:32:47;;;;;;;4.78;3.70;;;16.90;66.80;;;;;;5041660;28;20041;-60
2021/05/09 00:35:13;;;;;;;5.65;3.97;;;16.80;66.80;;;;;;5029119;28;20025;-60
2021/05/09 00:37:39;;;;;;;5.55;3.65;;;16.80;66.90;;;;;;5026843;28;20025;-61
2021/05/09 00:40:06;;;;;;;6.25;3.88;;;16.80;66.90;;;;;;5045708;28;20029;-60
2021/05/09 00:42:31;;;;;;;4.78;3.70;;;16.70;67.00;;;;;;5013985;28;20029;-60
2021/05/09 00:44:57;;;;;;;6.03;4.00;;;16.70;67.10;;;;;;5006126;28;20048;-61
2021/05/09 00:47:22;;;;;;;5.47;4.10;;;16.70;67.20;;;;;;5019942;28;20492;-61
2021/05/09 00:49:48;;;;;;;6.45;4.10;;;16.60;67.30;;;;;;5011674;28;20030;-61
2021/05/09 00:52:13;;;;;;;5.05;4.22;;;16.60;67.40;;;;;;5044536;28;20037;-61
2021/05/09 00:54:52;;;;;;;6.35;4.30;;;16.50;67.40;;;;;;5034148;28;20021;-62
2021/05/09 00:57:18;;;;;;;5.95;3.97;;;16.50;67.50;;;;;;5034224;28;20087;-61
2021/05/09 00:59:43;;;;;;;5.38;3.58;;;16.50;67.60;;;;;;5019232;28;20054;-61
2021/05/09 01:02:09;;;;;;;5.32;3.88;;;16.50;67.70;;;;;;5007132;28;20061;-61
2021/05/09 01:04:35;;;;;;;5.15;4.22;;;16.40;67.70;;;;;;5026625;28;20032;-61
2021/05/09 01:07:02;;;;;;;5.57;4.22;;;16.40;67.70;;;;;;5022887;28;20025;-61
2021/05/09 01:09:27;;;;;;;6.38;3.65;;;16.40;67.90;;;;;;5003195;28;20045;-60
2021/05/09 01:11:53;;;;;;;4.82;3.83;;;16.30;67.90;;;;;;5021368;28;20503;-61
2021/05/09 01:14:18;;;;;;;6.15;3.97;;;16.30;68.00;;;;;;5041808;28;20037;-61
2021/05/09 01:16:45;;;;;;;5.60;4.25;;;16.30;68.00;;;;;;5019815;28;20477;-61
2021/05/09 01:19:10;;;;;;;5.85;3.92;;;16.30;68.10;;;;;;5006707;28;20026;-61
2021/05/09 01:21:36;;;;;;;5.60;3.95;;;16.20;68.10;;;;;;5021337;28;20082;-60
2021/05/09 01:24:02;;;;;;;5.63;3.85;;;16.20;68.20;;;;;;5024860;28;20025;-61
2021/05/09 01:26:27;;;;;;;4.35;3.53;;;16.20;68.30;;;;;;5023703;28;20036;-61
2021/05/09 01:28:53;;;;;;;4.55;3.33;;;16.10;68.30;;;;;;5032318;28;20083;-60
2021/05/09 01:31:18;;;;;;;4.78;3.78;;;16.10;68.80;;;;;;5022727;28;20087;-60
2021/05/09 01:33:44;;;;;;;5.03;3.42;;;16.10;68.50;;;;;;5032909;28;20041;-61
2021/05/09 01:36:09;;;;;;;4.95;3.53;;;16.00;68.50;;;;;;5024402;28;20042;-61
2021/05/09 01:38:35;;;;;;;4.72;3.40;;;16.00;68.60;;;;;;5026995;28;20108;-61
2021/05/09 01:41:00;;;;;;;4.03;3.42;;;16.00;68.70;;;;;;5021618;28;20053;-60
2021/05/09 01:43:26;;;;;;;6.03;3.65;;;15.90;68.70;;;;;;5031974;28;20072;-61
2021/05/09 01:45:51;;;;;;;4.32;3.15;;;16.00;68.80;;;;;;5032705;28;20073;-60
2021/05/09 01:48:17;;;;;;;5.32;3.20;;;15.90;68.70;;;;;;5037282;28;20370;-61
2021/05/09 01:50:42;;;;;;;6.70;3.30;;;15.90;68.90;;;;;;5031317;28;20033;-60
2021/05/09 01:53:08;;;;;;;4.35;3.22;;;15.90;68.90;;;;;;5031950;28;20025;-61
2021/05/09 01:55:33;;;;;;;7.43;3.60;;;15.80;69.00;;;;;;5030448;28;20022;-61
2021/05/09 01:57:59;;;;;;;4.05;3.30;;;15.80;69.00;;;;;;5013834;28;20053;-60
2021/05/09 02:00:24;;;;;;;4.88;3.08;;;15.80;69.10;;;;;;5029972;28;20038;-60
2021/05/09 02:02:50;;;;;;;5.25;3.10;;;15.80;69.20;;;;;;5031360;28;20060;-61
2021/05/09 02:05:16;;;;;;;4.97;3.47;;;15.70;69.20;;;;;;5031647;28;20500;-61
2021/05/09 02:07:41;;;;;;;4.03;2.83;;;15.70;69.30;;;;;;5011891;28;20030;-61
2021/05/09 02:10:08;;;;;;;4.57;2.92;;;15.70;69.30;;;;;;5023513;28;20491;-61
2021/05/09 02:12:34;;;;;;;5.15;3.20;;;15.60;69.40;;;;;;5026788;28;20046;-61
2021/05/09 02:14:59;;;;;;;5.13;3.08;;;15.60;69.40;;;;;;5013401;28;20025;-61
2021/05/09 02:17:25;;;;;;;4.22;3.20;;;15.70;69.60;;;;;;5036291;28;20117;-61
2021/05/09 02:19:50;;;;;;;3.90;2.92;;;15.60;69.50;;;;;;5023319;28;20043;-61
2021/05/09 02:22:16;;;;;;;3.72;2.97;;;15.60;69.60;;;;;;5033446;28;20052;-61
2021/05/09 02:24:43;;;;;;;3.60;3.08;;;15.60;69.50;;;;;;5028305;28;20038;-61
2021/05/09 02:27:08;;;;;;;4.07;3.03;;;15.50;69.60;;;;;;5018843;28;20427;-61
2021/05/09 02:29:34;;;;;;;3.60;3.00;;;15.50;69.70;;;;;;5031457;28;20026;-60
2021/05/09 02:31:59;;;;;;;3.75;2.60;;;15.50;69.70;;;;;;5013074;28;20393;-61
2021/05/09 02:34:25;;;;;;;3.38;2.63;;;15.40;69.80;;;;;;5040459;28;20543;-60
2021/05/09 02:36:51;;;;;;;6.03;2.80;;;15.40;69.90;;;;;;5030439;28;20344;-60
2021/05/09 02:39:16;;;;;;;3.58;2.63;;;15.40;69.90;;;;;;5029601;28;20471;-61
2021/05/09 02:41:42;;;;;;;5.10;3.28;;;15.40;70.00;;;;;;5036545;28;20430;-61
2021/05/09 02:44:08;;;;;;;5.50;3.10;;;15.30;69.90;;;;;;5033901;28;20021;-60
2021/05/09 02:46:33;;;;;;;4.03;2.65;;;15.30;70.10;;;;;;5042793;28;20049;-61
2021/05/09 02:48:59;;;;;;;5.47;3.33;;;15.30;70.10;;;;;;5031050;28;20101;-60
2021/05/09 02:51:24;;;;;;;4.15;2.80;;;15.30;70.20;;;;;;5025665;28;20389;-61
2021/05/09 02:53:50;;;;;;;3.42;2.78;;;15.30;70.20;;;;;;5031283;28;20414;-61
2021/05/09 02:56:16;;;;;;;4.82;2.72;;;15.20;70.20;;;;;;5004859;28;20501;-62
2021/05/09 02:58:41;;;;;;;4.35;2.85;;;15.20;70.30;;;;;;5020407;28;20022;-60
2021/05/09 03:01:07;;;;;;;4.07;2.95;;;15.20;70.40;;;;;;5030979;28;20033;-61
2021/05/09 03:03:32;;;;;;;4.40;2.88;;;15.10;70.40;;;;;;5030403;28;20037;-60
2021/05/09 03:05:58;;;;;;;3.35;2.33;;;15.10;70.40;;;;;;5029394;28;20440;-61
2021/05/09 03:08:23;;;;;;;5.10;2.67;;;15.10;70.50;;;;;;5011386;28;20096;-60
2021/05/09 03:10:49;;;;;;;3.35;2.35;;;15.10;70.50;;;;;;5025491;28;20025;-60
2021/05/09 03:13:14;;;;;;;4.97;2.70;;;15.10;70.60;;;;;;5031015;28;20038;-61
2021/05/09 03:15:40;;;;;;;3.90;2.70;;;15.00;70.60;;;;;;5035667;28;20042;-60
2021/05/09 03:18:05;;;;;;;4.55;2.63;;;15.00;70.50;;;;;;5038458;28;20028;-60
2021/05/09 03:20:31;;;;;;;3.80;2.50;;;15.00;70.70;;;;;;5019446;28;20392;-60
2021/05/09 03:22:56;;;;;;;4.53;2.50;;;15.00;70.70;;;;;;5033625;28;20121;-62
2021/05/09 03:25:22;;;;;;;3.72;2.22;;;15.00;70.70;;;;;;5021010;28;20033;-60
2021/05/09 03:27:47;;;;;;;4.70;2.58;;;14.90;70.70;;;;;;5031533;28;20041;-61
2021/05/09 03:30:14;;;;;;;3.78;2.72;;;14.90;70.80;;;;;;5042402;28;20055;-61
2021/05/09 03:32:39;;;;;;;3.65;2.55;;;14.90;70.80;;;;;;5016061;28;20072;-61
2021/05/09 03:35:07;;;;;;;3.28;2.30;;;14.90;70.80;;;;;;5038433;28;20057;-61
2021/05/09 03:37:33;;;;;;;4.05;2.20;;;14.80;70.90;;;;;;5032151;28;20381;-61
2021/05/09 03:39:59;;;;;;;3.13;2.30;;;14.80;70.60;;;;;;5017631;28;20511;-61
2021/05/09 03:42:24;;;;;;;3.38;2.63;;;14.80;71.00;;;;;;5031829;28;20025;-61
2021/05/09 03:44:50;;;;;;;2.42;2.22;;;14.70;71.00;;;;;;5015636;28;20307;-61
2021/05/09 03:47:15;;;;;;;2.95;2.30;;;14.80;71.10;;;;;;5026329;28;20107;-60
2021/05/09 03:49:41;;;;;;;3.70;2.70;;;14.70;71.10;;;;;;5032672;28;20107;-60
2021/05/09 03:52:07;;;;;;;4.10;2.50;;;14.70;71.10;;;;;;5020428;28;20109;-60
2021/05/09 03:54:33;;;;;;;3.30;1.98;;;14.70;71.10;;;;;;5032929;28;20041;-60
2021/05/09 03:56:58;;;;;;;3.40;2.40;;;14.70;71.10;;;;;;5029470;28;20025;-61
2021/05/09 03:59:24;;;;;;;2.60;1.95;;;14.60;71.20;;;;;;5017844;28;20051;-61
2021/05/09 04:01:50;;;;;;;3.95;2.25;;;14.60;71.20;;;;;;5024841;28;20104;-61
2021/05/09 04:04:15;;;;;;;3.20;2.30;;;14.60;71.30;;;;;;5032634;28;20033;-60
2021/05/09 04:06:41;;;;;;;4.25;2.00;;;14.60;71.30;;;;;;5010280;28;20048;-61
2021/05/09 04:09:06;;;;;;;3.28;2.08;;;14.50;71.30;;;;;;5013939;28;20437;-61
2021/05/09 04:11:32;;;;;;;3.28;2.03;;;14.50;71.40;;;;;;5005165;28;20033;-60
2021/05/09 04:13:58;;;;;;;4.90;2.17;;;14.50;71.50;;;;;;5019355;28;20056;-61
2021/05/09 04:16:23;;;;;;;2.53;2.05;;;14.40;71.50;;;;;;5035279;28;20063;-61
2021/05/09 04:18:49;;;;;;;3.45;2.22;;;14.40;71.50;;;;;;5035400;28;20025;-61
2021/05/09 04:21:15;;;;;;;2.47;2.17;;;14.40;71.50;;;;;;5030349;28;20037;-61
2021/05/09 04:23:40;;;;;;;3.65;2.05;;;14.40;71.70;;;;;;5039689;28;20049;-61
2021/05/09 04:26:06;;;;;;;6.20;2.13;;;14.40;71.70;;;;;;5039199;28;20028;-60
2021/05/09 04:28:31;;;;;;;6.85;2.17;;;14.40;71.60;;;;;;5040628;28;20032;-61
2021/05/09 04:30:57;;;;;;;4.03;2.15;;;14.40;71.60;;;;;;5031450;28;20428;-60
2021/05/09 04:33:26;;;;;;;7.88;2.25;;;14.40;71.70;;;;;;5036788;28;20093;-60
2021/05/09 04:35:51;;;;;;;3.45;1.83;;;14.30;71.70;;;;;;5017513;28;20028;-61
2021/05/09 04:38:18;;;;;;;6.35;2.03;;;14.30;71.60;;;;;;5040949;28;20017;-61
2021/05/09 04:40:43;;;;;;;7.57;1.92;;;14.30;71.70;;;;;;5010054;28;20029;-60
2021/05/09 04:43:10;;;;;;;4.40;2.17;;;14.30;71.70;;;;;;5009249;28;20512;-61
2021/05/09 04:45:36;;;;;;;9.05;2.72;;;14.30;71.80;;;;;;5032607;28;20419;-61
2021/05/09 04:48:02;;;;;;;5.25;2.40;;;14.30;71.90;;;;;;5042832;28;20049;-60
2021/05/09 04:50:28;;;;;;;8.30;2.35;;;14.30;72.60;;;;;;5025104;28;20037;-61
2021/05/09 04:52:54;;;;;;;8.88;2.13;;;14.30;72.00;;;;;;5024282;28;20029;-60
2021/05/09 04:55:19;;;;;;;6.32;2.00;;;14.30;72.10;;;;;;5018688;28;20052;-61
2021/05/09 04:57:45;;;;;;;8.32;2.47;;;14.30;72.10;;;;;;5024468;28;20456;-61
2021/05/09 05:00:13;;;;;;;9.23;2.58;;;14.30;72.20;;;;;;5014839;28;20034;-61
2021/05/09 05:02:41;;;;;;;9.18;2.38;;;14.30;72.10;;;;;;5024656;28;20540;-61
2021/05/09 05:05:06;;;;;;;7.00;2.50;;;14.30;72.20;;;;;;5017904;28;20071;-61
2021/05/09 05:07:32;;;;;;;5.38;2.15;;;14.30;72.10;;;;;;5041096;28;20049;-60
2021/05/09 05:09:58;;;;;;;6.88;2.35;;;14.30;72.10;;;;;;5035307;28;20048;-61
2021/05/09 05:12:23;;;;;;;8.30;2.30;;;14.30;72.10;;;;;;5039448;28;20048;-60
2021/05/09 05:14:48;;;;;;;9.75;2.63;;;14.30;72.20;;;;;;5037966;28;20044;-61
2021/05/09 05:17:14;;;;;;;7.45;2.35;;;14.20;72.20;;;;;;5043243;28;20056;-61
2021/05/09 05:19:39;;;;;;;5.95;2.40;;;14.30;72.50;;;;;;5040839;28;20092;-62
2021/05/09 05:22:05;;;;;;;6.05;2.10;;;14.30;72.50;;;;;;5021030;28;20536;-61
2021/05/09 05:24:31;;;;;;;7.55;2.53;;;14.20;72.40;;;;;;5027361;28;20038;-62
2021/05/09 05:26:57;;;;;;;8.43;2.08;;;14.20;72.50;;;;;;5040255;28;20045;-61
2021/05/09 05:29:22;;;;;;;7.90;2.30;;;14.20;72.50;;;;;;5014656;28;20068;-61
2021/05/09 05:31:50;;;;;;;10.18;2.95;;;14.20;72.50;;;;;;5038783;28;20104;-61
2021/05/09 05:34:15;;;;;;;11.23;2.60;;;14.20;72.70;;;;;;5038459;28;20128;-61
2021/05/09 05:36:41;;;;;;;14.60;2.88;;;14.20;72.60;;;;;;5043574;28;20029;-60
2021/05/09 05:39:07;;;;;;;10.23;2.50;;;14.30;72.60;;;;;;5027986;28;20017;-60
2021/05/09 05:41:32;;;;;;;9.68;2.78;;;14.20;72.60;;;;;;5033775;28;20025;-62
2021/05/09 05:43:58;;;;;;;12.35;2.35;;;14.20;72.60;;;;;;5023336;28;20025;-61
2021/05/09 05:46:24;;;;;;;10.82;2.72;;;14.20;72.50;;;;;;5012915;28;20215;-61
2021/05/09 05:48:49;;;;;;;8.13;2.28;;;14.30;72.50;;;;;;5022226;28;20028;-61
2021/05/09 05:51:15;;;;;;;13.57;3.08;;;14.20;72.60;;;;;;5040814;28;20036;-61
2021/05/09 05:53:41;;;;;;;11.10;2.45;;;14.20;72.60;;;;;;5039533;28;20025;-61
2021/05/09 05:56:06;;;;;;;6.80;2.47;;;14.20;72.70;;;;;;5038361;28;20026;-62
2021/05/09 05:58:32;;;;;;;7.22;2.90;;;14.20;72.70;;;;;;5034184;28;20366;-60
2021/05/09 06:00:57;;;;;;;17.40;2.83;;;14.20;72.90;;;;;;5042874;28;20025;-60
2021/05/09 06:03:23;;;;;;;14.27;2.80;;;14.20;72.80;;;;;;5035863;28;20036;-60
2021/05/09 06:05:49;;;;;;;12.68;3.05;;;14.20;72.80;;;;;;5043043;28;20068;-61
2021/05/09 06:08:18;;;;;;;12.90;2.67;;;14.20;72.90;;;;;;5006488;28;20108;-60
2021/05/09 06:10:44;;;;;;;13.35;3.30;;;14.20;73.30;;;;;;5031890;28;20033;-60
2021/05/09 06:13:10;;;;;;;8.88;3.13;;;14.20;73.60;;;;;;5021074;28;20022;-62
2021/05/09 06:15:35;;;;;;;13.18;2.42;;;14.20;73.80;;;;;;5017238;28;20026;-60
2021/05/09 06:18:01;;;;;;;16.52;2.63;;;14.20;73.90;;;;;;5018962;28;20416;-62
2021/05/09 06:20:27;;;;;;;15.07;2.70;;;14.20;74.00;;;;;;5042562;28;20368;-62
2021/05/09 06:22:57;;;;;;;13.10;4.07;;;14.20;74.20;;;;;;5035224;28;20076;-60
2021/05/09 06:25:22;;;;;;;11.13;2.45;;;14.10;74.20;;;;;;5003679;28;20033;-61
2021/05/09 06:27:48;;;;;;;13.30;2.67;;;14.20;75.00;;;;;;5020742;28;20017;-61
2021/05/09 06:30:14;;;;;;;11.63;2.90;;;14.10;74.90;;;;;;5038021;28;20037;-60
2021/05/09 06:32:39;;;;;;;15.27;2.80;;;14.10;74.60;;;;;;5032706;28;20103;-63
2021/05/09 06:35:05;;;;;;;10.75;3.50;;;14.10;74.70;;;;;;5012196;28;20025;-61
2021/05/09 06:37:32;;;;;;;9.88;3.00;;;14.10;74.70;;;;;;5018014;28;20452;-61
2021/05/09 06:39:58;;;;;;;10.43;3.03;;;14.20;75.20;;;;;;5016920;28;20111;-60
2021/05/09 06:42:23;;;;;;;12.48;2.65;;;14.20;75.10;;;;;;5042018;28;20090;-61
2021/05/09 06:44:57;;;;;;;10.50;2.60;;;14.20;75.10;;;;;;5041427;28;20033;-61
2021/05/09 06:47:23;;;;;;;6.88;2.70;;;14.10;75.00;;;;;;5025050;28;20041;-61
2021/05/09 06:49:48;;;;;;;6.55;2.70;;;14.10;74.90;;;;;;5017266;28;20550;-60
2021/05/09 06:52:14;;;;;;;8.13;2.15;;;14.10;74.90;;;;;;5024321;28;20063;-60
2021/05/09 06:54:39;;;;;;;13.15;2.33;;;14.10;74.90;;;;;;5004377;28;20063;-61
2021/05/09 06:57:05;;;;;;;8.75;2.40;;;14.10;74.70;;;;;;5025013;28;20109;-60
2021/05/09 06:59:31;;;;;;;9.38;2.38;;;14.20;74.70;;;;;;5038842;28;20039;-61
2021/05/09 07:01:57;;;;;;;9.43;2.63;;;14.10;74.60;;;;;;5030120;28;20110;-61
2021/05/09 07:04:22;;;;;;;3.35;2.13;;;14.20;74.80;;;;;;5014730;28;20060;-60
2021/05/09 07:06:47;;;;;;;6.93;2.30;;;14.20;74.70;;;;;;5031105;28;20083;-60
2021/05/09 07:09:13;;;;;;;4.28;2.28;;;14.10;75.00;;;;;;5034399;28;20144;-61
2021/05/09 07:11:39;;;;;;;5.35;2.10;;;14.20;75.70;;;;;;5032175;28;20039;-61
2021/05/09 07:14:05;;;;;;;7.65;2.58;;;14.20;75.00;;;;;;5019270;28;20032;-61
2021/05/09 07:16:31;;;;;;;7.68;2.38;;;14.10;74.70;;;;;;5021665;28;20032;-61
2021/05/09 07:18:57;;;;;;;5.82;2.13;;;14.20;74.80;;;;;;5029576;28;20026;-62
2021/05/09 07:21:26;;;;;;;6.47;2.13;;;14.20;74.70;;;;;;5030779;28;20028;-61
2021/05/09 07:23:52;;;;;;;4.05;2.33;;;14.20;74.60;;;;;;5019866;28;20117;-61
2021/05/09 07:26:18;;;;;;;4.88;2.08;;;14.20;74.60;;;;;;5029875;28;20400;-62
2021/05/09 07:28:43;;;;;;;3.83;2.08;;;14.20;74.50;;;;;;5024964;28;20033;-60
2021/05/09 07:31:09;;;;;;;3.92;2.20;;;14.30;74.40;;;;;;5038482;28;20025;-61
2021/05/09 07:33:34;;;;;;;10.10;2.10;;;14.30;74.40;;;;;;5021696;28;20029;-60
2021/05/09 07:36:00;;;;;;;5.38;2.50;;;14.30;74.10;;;;;;5039965;28;20030;-61
2021/05/09 07:38:25;;;;;;;5.47;2.38;;;14.30;74.10;;;;;;5009792;28;20026;-61
2021/05/09 07:40:51;;;;;;;6.57;2.08;;;14.30;74.00;;;;;;5019054;28;20029;-62
2021/05/09 07:43:17;;;;;;;4.72;3.17;;;14.30;74.20;;;;;;5035278;28;20064;-60
2021/05/09 07:45:43;;;;;;;6.97;2.03;;;14.30;73.90;;;;;;5022674;28;20077;-61
2021/05/09 07:48:10;;;;;;;3.65;1.90;;;14.40;74.00;;;;;;4999783;28;20037;-60
2021/05/09 07:50:35;;;;;;;5.43;1.80;;;14.40;74.00;;;;;;4992475;28;20113;-61
2021/05/09 07:53:01;;;;;;;2.58;1.85;;;14.40;73.80;;;;;;4997699;28;20134;-62
2021/05/09 07:55:27;;;;;;;2.53;1.60;;;14.40;73.40;;;;;;4997198;28;20362;-61
2021/05/09 07:57:53;;;;;;;6.05;1.70;;;14.40;73.30;;;;;;4996662;28;20030;-61
2021/05/09 08:00:19;;;;;;;2.78;1.70;;;14.40;73.10;;;;;;5000805;28;20076;-61
2021/05/09 08:02:45;;;;;;;6.05;1.75;;;14.50;72.80;;;;;;4989482;28;20098;-62
2021/05/09 08:05:12;;;;;;;4.45;1.60;;;14.50;72.60;;;;;;4992796;28;20072;-61
2021/05/09 08:07:50;;;;;;;2.13;1.77;;;14.60;72.00;;;;;;4993847;28;20029;-61
2021/05/09 08:10:16;;;;;;;2.38;1.67;;;14.60;71.70;;;;;;4999716;28;20117;-60
2021/05/09 08:12:41;;;;;;;2.55;1.70;;;14.60;71.70;;;;;;5005536;28;20704;-61
2021/05/09 08:15:07;;;;;;;4.10;1.55;;;14.70;72.20;;;;;;4999033;28;20044;-60
2021/05/09 08:17:33;;;;;;;3.03;1.30;;;14.70;70.80;;;;;;4991222;28;20034;-61
2021/05/09 08:19:58;;;;;;;3.47;1.45;;;14.80;70.00;;;;;;5003367;28;20028;-61
2021/05/09 08:22:24;;;;;;;4.18;1.60;;;14.80;69.60;;;;;;4995286;28;20097;-61
2021/05/09 08:24:49;;;;;;;3.72;1.35;;;14.90;69.50;;;;;;4999456;28;20029;-61
2021/05/09 08:27:15;;;;;;;9.57;1.55;;;14.90;68.80;;;;;;5001083;28;20125;-61
2021/05/09 08:29:41;;;;;;;5.70;1.95;;;15.00;68.80;;;;;;4990273;28;20030;-61
2021/05/09 08:32:06;;;;;;;10.40;2.20;;;15.00;69.00;;;;;;4995208;28;20038;-60
2021/05/09 08:34:32;;;;;;;10.32;2.40;;;15.10;69.30;;;;;;4995432;28;20084;-61
2021/05/09 08:36:57;;;;;;;43.03;5.25;;;15.10;69.10;;;;;;4994837;28;20501;-59
2021/05/09 08:39:23;;;;;;;22.27;3.55;;;15.20;69.40;;;;;;4994517;28;20029;-61
2021/05/09 08:41:50;;;;;;;6.32;1.88;;;15.20;68.80;;;;;;4992833;28;20124;-61
2021/05/09 08:44:15;;;;;;;12.52;2.95;;;15.30;67.90;;;;;;5002512;28;20628;-60
2021/05/09 08:46:41;;;;;;;18.17;2.80;;;15.30;67.90;;;;;;5020952;28;20318;-60
2021/05/09 08:49:07;;;;;;;37.22;6.10;;;15.40;67.90;;;;;;5012788;28;20104;-60
2021/05/09 08:51:32;;;;;;;21.75;2.88;;;15.40;67.50;;;;;;5014339;28;20025;-60
2021/05/09 08:53:58;;;;;;;17.75;2.40;;;15.50;67.10;;;;;;5022397;28;20056;-60
2021/05/09 08:56:26;;;;;;;41.28;4.13;;;15.60;67.20;;;;;;5048310;28;20067;-61
2021/05/09 08:58:52;;;;;;;17.02;2.67;;;15.60;67.30;;;;;;5032048;28;20036;-61
2021/05/09 09:01:18;;;;;;;32.88;4.22;;;15.70;67.20;;;;;;5033819;28;20377;-60
2021/05/09 09:03:43;;;;;;;15.05;2.15;;;15.70;67.10;;;;;;5033878;28;20041;-61
2021/05/09 09:06:14;;;;;;;22.85;2.38;;;15.70;66.50;;;;;;5030891;28;20449;-60
2021/05/09 09:08:52;;;;;;;9.15;1.42;;;15.80;66.10;;;;;;5009963;28;20025;-61
2021/05/09 09:11:25;;;;;;;12.70;2.08;;;15.90;66.10;;;;;;5041504;28;20029;-60
2021/05/09 09:14:08;;;;;;;7.45;1.70;;;15.90;66.20;;;;;;5033266;28;20029;-60
2021/05/09 09:16:34;;;;;;;17.52;2.20;;;16.00;66.00;;;;;;5031758;28;20021;-63
2021/05/09 09:19:12;;;;;;;10.88;2.03;;;16.10;66.20;;;;;;5031948;28;20024;-60
2021/05/09 09:21:38;;;;;;;6.32;1.70;;;16.10;66.50;;;;;;5039423;28;20124;-61
2021/05/09 09:24:05;;;;;;;4.15;1.73;;;16.20;66.70;;;;;;5025443;28;20130;-60
2021/05/09 09:26:40;;;;;;;7.93;1.58;;;16.30;66.90;;;;;;5033681;28;20021;-60
2021/05/09 09:29:19;;;;;;;16.35;3.22;;;16.40;67.10;;;;;;5033187;28;20033;-61
2021/05/09 09:31:44;;;;;;;29.92;3.75;;;16.40;67.30;;;;;;5034529;28;20445;-61
2021/05/09 09:34:10;;;;;;;27.80;3.97;;;16.50;67.20;;;;;;5014975;28;20033;-60
2021/05/09 09:36:36;;;;;;;28.33;4.03;;;16.60;67.40;;;;;;5012302;28;20520;-61
2021/05/09 09:39:03;;;;;;;28.98;3.53;;;16.60;67.20;;;;;;5016894;28;20503;-61
2021/05/09 09:41:30;;;;;;;42.92;4.85;;;16.70;67.00;;;;;;5035038;28;20511;-61
2021/05/09 09:44:00;;;;;;;23.60;3.50;;;16.70;67.10;;;;;;5045332;28;20078;-61
2021/05/09 09:46:36;;;;;;;33.35;5.50;;;16.80;66.50;;;;;;5029246;28;20040;-61
2021/05/09 09:49:03;;;;;;;40.95;5.65;;;16.80;66.40;;;;;;5029858;28;20033;-60
2021/05/09 09:51:29;;;;;;;39.22;5.78;;;16.90;66.80;;;;;;5037758;28;20151;-61
2021/05/09 09:53:56;;;;;;;39.28;5.88;;;16.90;67.10;;;;;;5040548;28;20108;-60
2021/05/09 09:56:25;;;;;;;46.67;5.35;;;17.00;67.20;;;;;;5020633;28;20030;-60
2021/05/09 09:58:54;;;;;;;48.83;5.43;;;17.00;67.50;;;;;;5027047;28;20520;-60
2021/05/09 10:01:27;;;;;;;48.67;6.47;;;17.10;68.10;;;;;;5036174;28;20048;-60
2021/05/09 10:03:54;;;;;;;40.28;5.88;;;17.10;68.40;;;;;;5024078;28;20370;-61
2021/05/09 10:06:20;;;;;;;34.50;4.95;;;17.10;68.40;;;;;;5020936;28;20021;-60
2021/05/09 10:08:46;;;;;;;45.00;5.63;;;17.20;68.80;;;;;;5007341;28;20040;-61
2021/05/09 10:11:11;;;;;;;47.13;6.22;;;17.30;68.60;;;;;;5035759;28;20022;-61
2021/05/09 10:13:37;;;;;;;50.20;5.75;;;17.40;68.50;;;;;;5019417;28;20045;-60
2021/05/09 10:16:03;;;;;;;57.15;6.93;;;17.50;68.20;;;;;;5038850;28;20036;-60
2021/05/09 10:18:29;;;;;;;40.85;5.63;;;17.60;68.30;;;;;;5012127;28;20029;-61
2021/05/09 10:20:54;;;;;;;55.83;6.05;;;17.60;68.20;;;;;;5030592;28;20036;-61
2021/05/09 10:23:20;;;;;;;48.55;5.68;;;17.70;68.10;;;;;;5030411;28;20790;-60
2021/05/09 10:25:54;;;;;;;47.33;5.95;;;17.80;68.50;;;;;;5030340;28;20053;-60
2021/05/09 10:28:22;;;;;;;51.92;5.68;;;17.80;68.10;;;;;;5015881;28;20108;-59
2021/05/09 10:30:55;;;;;;;50.55;6.75;;;17.90;67.90;;;;;;5005839;28;20025;-60
2021/05/09 10:33:39;;;;;;;52.88;6.07;;;18.00;67.80;;;;;;5003992;28;20335;-61
2021/05/09 10:36:05;;;;;;;37.42;5.00;;;18.00;67.70;;;;;;5037754;28;20061;-62
2021/05/09 10:38:31;;;;;;;44.08;5.85;;;18.10;67.20;;;;;;5021850;28;20121;-61
2021/05/09 10:41:09;;;;;;;41.05;4.93;;;18.20;67.00;;;;;;5030340;28;20163;-61
2021/05/09 10:43:36;;;;;;;47.80;5.75;;;18.20;66.80;;;;;;5032702;28;20061;-60
2021/05/09 10:46:01;;;;;;;41.63;5.35;;;18.30;66.70;;;;;;5027094;28;20056;-59
2021/05/09 10:48:33;;;;;;;39.95;5.18;;;18.40;66.60;;;;;;5013285;28;20029;-60
2021/05/09 10:51:02;;;;;;;39.47;4.03;;;18.40;66.20;;;;;;5024945;28;20084;-62
2021/05/09 10:53:33;;;;;;;35.58;5.28;;;18.50;66.00;;;;;;5031776;28;20156;-60
2021/05/09 10:56:01;;;;;;;42.33;5.10;;;18.60;65.60;;;;;;5030492;28;20033;-60
2021/05/09 10:58:39;;;;;;;35.17;4.65;;;18.70;66.30;;;;;;5021740;28;20369;-61
2021/05/09 11:01:08;;;;;;;58.28;6.63;;;18.80;65.50;;;;;;5031285;28;20073;-61
2021/05/09 11:03:36;;;;;;;38.45;5.90;;;18.90;65.20;;;;;;5031998;28;20099;-61
2021/05/09 11:06:09;;;;;;;61.63;5.55;;;19.00;64.90;;;;;;5030808;28;20535;-61
2021/05/09 11:09:00;;;;;;;29.23;4.55;;;19.00;64.80;;;;;;5030887;28;20033;-61
2021/05/09 11:11:25;;;;;;;63.92;6.40;;;19.20;64.90;;;;;;5035487;28;20073;-62
2021/05/09 11:14:12;;;;;;;40.42;5.65;;;19.30;64.60;;;;;;5040131;28;20030;-62
2021/05/09 11:16:42;;;;;;;51.03;7.60;;;19.40;64.60;;;;;;5032869;28;20040;-61
2021/05/09 11:19:08;;;;;;;41.65;5.70;;;19.50;64.70;;;;;;5037174;28;20087;-60
2021/05/09 11:21:35;;;;;;;34.58;4.07;;;19.60;64.90;;;;;;5033844;28;20021;-61
2021/05/09 11:24:11;;;;;;;27.05;3.97;;;19.80;64.70;;;;;;5023600;28;20013;-61
2021/05/09 11:26:41;;;;;;;27.83;3.58;;;20.00;64.20;;;;;;5008836;28;20033;-61
2021/05/09 11:29:17;;;;;;;25.33;3.78;;;20.10;63.90;;;;;;5033691;28;20561;-61
2021/05/09 11:31:47;;;;;;;31.40;4.95;;;20.30;63.80;;;;;;5034814;28;20035;-61
2021/05/09 11:34:13;;;;;;;40.25;4.90;;;20.40;63.60;;;;;;5013236;28;20029;-62
2021/05/09 11:36:39;;;;;;;25.90;4.75;;;20.50;63.50;;;;;;5032059;28;20088;-60
2021/05/09 11:39:26;;;;;;;29.92;3.55;;;20.60;63.40;;;;;;5015898;28;20052;-61
2021/05/09 11:42:01;;;;;;;43.42;4.88;;;20.80;63.50;;;;;;5010849;28;20124;-61
2021/05/09 11:44:47;;;;;;;38.53;4.03;;;20.90;63.30;;;;;;5029842;28;20083;-60
2021/05/09 11:47:26;;;;;;;30.20;3.63;;;21.00;63.20;;;;;;5023382;28;20195;-61
2021/05/09 11:49:55;;;;;;;25.45;3.35;;;21.10;63.30;;;;;;5031719;28;20029;-61
2021/05/09 11:52:22;;;;;;;32.70;3.45;;;21.30;63.40;;;;;;5037473;28;20026;-61
2021/05/09 11:55:00;;;;;;;27.02;3.40;;;21.40;63.30;;;;;;5036312;28;20048;-62
2021/05/09 11:57:27;;;;;;;27.25;3.15;;;21.50;63.10;;;;;;5019266;28;20036;-61
2021/05/09 12:00:00;;;;;;;21.75;3.13;;;21.60;62.60;;;;;;5017743;28;20026;-61
2021/05/09 12:02:43;;;;;;;36.22;3.65;;;21.80;62.00;;;;;;5022334;28;20033;-61
2021/05/09 12:05:21;;;;;;;25.65;3.72;;;21.90;62.00;;;;;;5024494;28;20055;-60
2021/05/09 12:07:51;;;;;;;26.20;3.03;;;22.00;61.90;;;;;;5035746;28;20076;-61
2021/05/09 12:10:30;;;;;;;24.20;3.05;;;22.10;61.80;;;;;;5022929;28;20033;-62
2021/05/09 12:12:57;;;;;;;30.88;5.10;;;22.20;62.60;;;;;;5019507;28;20295;-61
2021/05/09 12:15:22;;;;;;;45.22;5.60;;;22.30;61.90;;;;;;5020766;28;20094;-61
2021/05/09 12:17:52;;;;;;;27.05;4.47;;;22.40;62.20;;;;;;5030841;28;20026;-60
2021/05/09 12:20:23;;;;;;;39.25;4.55;;;22.40;62.20;;;;;;5015709;28;20047;-62
2021/05/09 12:22:49;;;;;;;40.33;4.70;;;22.60;61.90;;;;;;5032589;28;20037;-60
2021/05/09 12:25:14;;;;;;;28.30;4.60;;;22.60;62.00;;;;;;5022832;28;20127;-61
2021/05/09 12:27:46;;;;;;;55.20;5.68;;;22.70;62.10;;;;;;5020504;28;20079;-61
2021/05/09 12:30:16;;;;;;;47.20;4.93;;;22.80;62.50;;;;;;5036019;28;20125;-61
2021/05/09 12:32:41;;;;;;;39.75;4.38;;;22.90;61.40;;;;;;5022161;28;20017;-62
2021/05/09 12:35:08;;;;;;;25.75;3.70;;;23.00;61.30;;;;;;5029484;28;20072;-60
2021/05/09 12:37:48;;;;;;;46.38;4.65;;;23.10;61.20;;;;;;5034386;28;20028;-61
2021/05/09 12:40:24;;;;;;;44.75;5.22;;;23.20;61.20;;;;;;5037402;28;20092;-61
2021/05/09 12:43:09;;;;;;;69.38;7.22;;;23.30;61.30;;;;;;5003641;28;20033;-62